createdAt,value
2018-01-13T00:00:02.152Z,1.30
2018-01-13T00:02:30.712Z,1.41
2018-01-13T00:04:59.186Z,1.34
2018-01-13T00:07:27.797Z,1.34
2018-01-13T00:09:56.430Z,1.49
2018-01-13T00:12:25.084Z,1.42
2018-01-13T00:14:53.855Z,1.39
2018-01-13T00:17:22.684Z,1.60
2018-01-13T00:19:51.621Z,1.49
2018-01-13T00:22:20.281Z,1.40
2018-01-13T00:24:49.229Z,1.30
2018-01-13T00:27:18.061Z,1.45
2018-01-13T00:29:46.687Z,1.26
2018-01-13T00:32:15.476Z,1.37
2018-01-13T00:34:44.021Z,1.41
2018-01-13T00:37:12.591Z,1.34
2018-01-13T00:39:41.469Z,1.52
2018-01-13T00:42:10.228Z,1.45
2018-01-13T00:44:38.870Z,1.40
2018-01-13T00:47:07.418Z,1.25
2018-01-13T00:49:35.994Z,1.30
2018-01-13T00:52:04.885Z,1.22
2018-01-13T00:54:33.568Z,1.32
2018-01-13T00:57:02.230Z,1.26
2018-01-13T00:59:31.039Z,1.38
2018-01-13T01:01:59.633Z,1.15
2018-01-13T01:04:28.288Z,1.15
2018-01-13T01:06:57.037Z,1.21
2018-01-13T01:09:26.284Z,1.36
2018-01-13T01:11:55.228Z,1.20
2018-01-13T01:14:24.385Z,1.25
2018-01-13T01:16:53.212Z,1.23
2018-01-13T01:19:21.987Z,1.16
2018-01-13T01:21:50.531Z,1.16
2018-01-13T01:24:19.112Z,1.20
2018-01-13T01:26:53.948Z,1.27
2018-01-13T01:29:22.818Z,1.22
2018-01-13T01:31:51.378Z,1.19
2018-01-13T01:34:20.020Z,1.29
2018-01-13T01:36:48.816Z,1.21
2018-01-13T01:39:17.484Z,1.33
2018-01-13T01:41:46.251Z,1.35
2018-01-13T01:44:14.939Z,1.20
2018-01-13T01:46:43.501Z,1.14
2018-01-13T01:49:12.208Z,1.16
2018-01-13T01:51:40.834Z,1.19
2018-01-13T01:54:09.478Z,1.13
2018-01-13T01:56:39.597Z,1.17
2018-01-13T01:59:08.742Z,1.14
2018-01-13T02:01:37.645Z,1.18
2018-01-13T02:04:06.483Z,1.30
2018-01-13T02:06:37.351Z,1.20
2018-01-13T02:09:06.350Z,1.30
2018-01-13T02:11:34.964Z,1.15
2018-01-13T02:14:10.038Z,1.12
2018-01-13T02:16:38.952Z,1.01
2018-01-13T02:19:07.820Z,1.06
2018-01-13T02:21:36.518Z,1.21
2018-01-13T02:24:05.035Z,1.15
2018-01-13T02:26:33.718Z,1.06
2018-01-13T02:29:02.194Z,1.22
2018-01-13T02:31:31.054Z,1.16
2018-01-13T02:33:59.544Z,1.39
2018-01-13T02:36:28.042Z,1.07
2018-01-13T02:38:56.558Z,1.30
2018-01-13T02:41:25.110Z,1.11
2018-01-13T02:43:53.728Z,1.12
2018-01-13T02:46:22.731Z,1.19
2018-01-13T02:48:51.175Z,1.21
2018-01-13T02:51:19.832Z,1.16
2018-01-13T02:53:48.312Z,1.21
2018-01-13T02:56:16.895Z,1.30
2018-01-13T02:58:45.396Z,1.18
2018-01-13T03:01:14.077Z,1.28
2018-01-13T03:03:42.559Z,1.31
2018-01-13T03:06:14.138Z,1.27
2018-01-13T03:08:42.748Z,1.34
2018-01-13T03:11:11.259Z,1.42
2018-01-13T03:13:40.100Z,1.34
2018-01-13T03:16:09.135Z,1.30
2018-01-13T03:18:37.632Z,1.07
2018-01-13T03:21:06.182Z,1.13
2018-01-13T03:23:34.879Z,1.10
2018-01-13T03:26:03.407Z,1.12
2018-01-13T03:28:31.909Z,1.47
2018-01-13T03:31:00.440Z,1.15
2018-01-13T03:33:29.528Z,1.14
2018-01-13T03:35:58.452Z,1.00
2018-01-13T03:38:27.334Z,0.98
2018-01-13T03:40:56.224Z,0.93
2018-01-13T03:43:25.115Z,0.94
2018-01-13T03:45:54.219Z,0.89
2018-01-13T03:48:22.843Z,0.85
2018-01-13T03:50:51.343Z,1.01
2018-01-13T03:53:19.834Z,1.00
2018-01-13T03:55:48.423Z,1.13
2018-01-13T03:58:16.902Z,0.98
2018-01-13T04:00:45.392Z,0.90
2018-01-13T04:03:14.200Z,0.92
2018-01-13T04:05:42.863Z,0.82
2018-01-13T04:08:11.432Z,0.88
2018-01-13T04:10:40.230Z,0.87
2018-01-13T04:13:08.736Z,0.88
2018-01-13T04:15:37.255Z,0.82
2018-01-13T04:18:05.782Z,0.89
2018-01-13T04:20:34.794Z,0.83
2018-01-13T04:23:03.319Z,0.96
2018-01-13T04:25:31.821Z,0.91
2018-01-13T04:28:00.500Z,0.79
2018-01-13T04:30:29.044Z,0.93
2018-01-13T04:32:57.759Z,1.21
2018-01-13T04:35:26.306Z,1.19
2018-01-13T04:37:54.826Z,0.98
2018-01-13T04:40:23.439Z,0.99
2018-01-13T04:42:52.293Z,0.98
2018-01-13T04:45:20.953Z,0.89
2018-01-13T04:47:49.684Z,1.01
2018-01-13T04:50:18.533Z,0.94
2018-01-13T04:52:47.041Z,0.94
2018-01-13T04:55:15.682Z,0.94
2018-01-13T04:57:44.754Z,0.89
2018-01-13T05:03:19.829Z,0.95
2018-01-13T05:05:49.305Z,0.85
2018-01-13T05:08:18.097Z,0.91
2018-01-13T05:10:47.263Z,0.79
2018-01-13T05:13:16.181Z,0.84
2018-01-13T05:15:46.885Z,0.83
2018-01-13T05:18:15.923Z,0.85
2018-01-13T05:20:44.926Z,0.85
2018-01-13T05:23:13.790Z,0.85
2018-01-13T05:25:43.082Z,0.85
2018-01-13T05:28:12.210Z,0.92
2018-01-13T05:30:41.720Z,0.94
2018-01-13T05:33:10.819Z,0.95
2018-01-13T05:35:39.902Z,0.93
2018-01-13T05:38:08.802Z,0.91
2018-01-13T05:40:37.855Z,1.02
2018-01-13T05:43:06.794Z,0.85
2018-01-13T05:45:36.102Z,0.85
2018-01-13T05:48:05.179Z,0.93
2018-01-13T05:50:34.487Z,1.03
2018-01-13T05:53:03.948Z,0.89
2018-01-13T05:55:33.088Z,1.05
2018-01-13T05:58:01.889Z,0.94
2018-01-13T06:00:32.031Z,0.90
2018-01-13T06:03:01.035Z,1.01
2018-01-13T06:05:30.678Z,0.91
2018-01-13T06:07:59.329Z,0.93
2018-01-13T06:10:28.381Z,0.86
2018-01-13T06:12:57.209Z,0.82
2018-01-13T06:15:26.356Z,0.83
2018-01-13T06:17:55.828Z,1.01
2018-01-13T06:20:24.702Z,0.88
2018-01-13T06:22:54.058Z,0.87
2018-01-13T06:25:29.715Z,0.88
2018-01-13T06:27:58.795Z,0.94
2018-01-13T06:30:27.690Z,0.96
2018-01-13T06:32:56.755Z,0.88
2018-01-13T06:35:26.079Z,0.93
2018-01-13T06:37:55.157Z,0.95
2018-01-13T06:40:24.271Z,0.96
2018-01-13T06:42:53.334Z,0.99
2018-01-13T06:45:22.671Z,0.84
2018-01-13T06:47:51.766Z,0.89
2018-01-13T06:50:20.615Z,1.07
2018-01-13T06:52:49.742Z,1.05
2018-01-13T06:55:19.048Z,0.93
2018-01-13T06:57:47.870Z,0.92
2018-01-13T07:00:18.061Z,0.94
2018-01-13T07:02:47.310Z,0.98
2018-01-13T07:05:16.442Z,0.96
2018-01-13T07:07:45.465Z,1.04
2018-01-13T07:10:14.851Z,0.88
2018-01-13T07:12:43.661Z,0.84
2018-01-13T07:15:12.861Z,0.87
2018-01-13T07:17:41.787Z,0.89
2018-01-13T07:20:11.022Z,0.81
2018-01-13T07:22:40.527Z,0.94
2018-01-13T07:25:10.041Z,0.92
2018-01-13T07:27:39.944Z,0.83
2018-01-13T07:30:09.026Z,0.85
2018-01-13T07:32:37.933Z,0.77
2018-01-13T07:35:06.981Z,0.91
2018-01-13T07:37:36.305Z,1.01
2018-01-13T07:40:05.279Z,0.85
2018-01-13T07:42:35.182Z,0.82
2018-01-13T07:45:04.573Z,0.96
2018-01-13T07:47:33.421Z,0.94
2018-01-13T07:50:02.619Z,0.83
2018-01-13T07:52:32.018Z,0.80
2018-01-13T07:55:01.188Z,0.92
2018-01-13T07:57:30.388Z,0.81
2018-01-13T07:59:59.792Z,0.99
2018-01-13T08:02:32.698Z,0.89
2018-01-13T08:05:01.966Z,0.83
2018-01-13T08:07:37.178Z,0.78
2018-01-13T08:10:07.891Z,0.90
2018-01-13T08:12:37.098Z,1.10
2018-01-13T08:15:06.116Z,0.74
2018-01-13T08:17:36.813Z,0.91
2018-01-13T08:20:07.446Z,0.96
2018-01-13T08:22:38.206Z,0.81
2018-01-13T08:25:07.378Z,0.64
2018-01-13T08:27:37.150Z,0.71
2018-01-13T08:30:06.869Z,0.60
2018-01-13T08:32:36.361Z,0.84
2018-01-13T08:35:05.376Z,0.73
2018-01-13T08:37:35.859Z,0.77
2018-01-13T08:40:05.982Z,0.79
2018-01-13T08:42:35.574Z,0.73
2018-01-13T08:45:05.350Z,0.70
2018-01-13T08:47:35.699Z,0.72
2018-01-13T08:50:06.078Z,0.64
2018-01-13T08:52:35.273Z,0.54
2018-01-13T08:55:04.866Z,0.76
2018-01-13T08:57:33.900Z,0.67
2018-01-13T09:00:02.993Z,0.65
2018-01-13T09:02:32.222Z,0.61
2018-01-13T09:05:01.938Z,0.79
2018-01-13T09:07:31.739Z,0.70
2018-01-13T09:10:01.020Z,0.61
2018-01-13T09:12:29.802Z,0.55
2018-01-13T09:14:58.952Z,0.47
2018-01-13T09:17:28.138Z,0.73
2018-01-13T09:19:57.153Z,0.50
2018-01-13T09:22:27.567Z,0.41
2018-01-13T09:24:56.614Z,0.58
2018-01-13T09:27:26.734Z,0.57
2018-01-13T09:29:55.823Z,0.61
2018-01-13T09:32:25.091Z,0.67
2018-01-13T09:34:54.213Z,0.77
2018-01-13T09:37:23.315Z,0.65
2018-01-13T09:39:52.289Z,0.71
2018-01-13T09:42:21.051Z,0.70
2018-01-13T09:44:50.044Z,0.91
2018-01-13T09:47:18.995Z,1.05
2018-01-13T09:49:49.550Z,1.19
2018-01-13T09:52:18.616Z,0.91
2018-01-13T09:54:47.761Z,0.92
2018-01-13T09:57:16.902Z,0.94
2018-01-13T09:59:46.561Z,1.04
2018-01-13T10:02:15.923Z,1.14
2018-01-13T10:04:45.485Z,1.17
2018-01-13T10:07:14.493Z,1.13
2018-01-13T10:09:43.811Z,0.96
2018-01-13T10:12:12.917Z,1.55
2018-01-13T10:14:41.684Z,1.81
2018-01-13T10:17:10.583Z,2.53
2018-01-13T10:19:39.735Z,2.35
2018-01-13T10:22:08.639Z,1.75
2018-01-13T10:24:38.016Z,1.01
2018-01-13T10:27:06.870Z,0.88
2018-01-13T10:29:35.755Z,0.92
2018-01-13T10:32:04.728Z,1.20
2018-01-13T10:34:33.668Z,1.00
2018-01-13T10:37:03.026Z,1.02
2018-01-13T10:39:31.927Z,0.95
2018-01-13T10:42:01.414Z,0.87
2018-01-13T10:44:30.535Z,0.71
2018-01-13T10:47:00.234Z,0.84
2018-01-13T10:49:29.210Z,0.80
2018-01-13T10:51:58.495Z,1.03
2018-01-13T10:54:27.729Z,0.77
2018-01-13T10:56:56.631Z,0.86
2018-01-13T10:59:25.471Z,0.69
2018-01-13T11:01:55.833Z,0.92
2018-01-13T11:04:24.932Z,0.76
2018-01-13T11:06:55.255Z,0.85
2018-01-13T11:09:24.766Z,0.91
2018-01-13T11:11:54.468Z,1.01
2018-01-13T11:14:23.522Z,1.08
2018-01-13T11:16:52.881Z,0.93
2018-01-13T11:19:22.343Z,0.59
2018-01-13T11:21:51.410Z,0.67
2018-01-13T11:24:21.005Z,0.67
2018-01-13T11:26:50.143Z,0.83
2018-01-13T11:29:20.202Z,0.97
2018-01-13T11:31:49.679Z,0.68
2018-01-13T11:34:19.666Z,0.81
2018-01-13T11:36:48.626Z,0.67
2018-01-13T11:39:17.997Z,0.82
2018-01-13T11:41:47.170Z,0.83
2018-01-13T11:44:16.754Z,0.67
2018-01-13T11:46:46.691Z,0.77
2018-01-13T11:49:15.766Z,0.83
2018-01-13T11:51:44.887Z,0.73
2018-01-13T11:54:13.909Z,0.63
2018-01-13T11:56:43.305Z,0.68
2018-01-13T11:59:12.404Z,0.52
2018-01-13T12:01:45.937Z,0.69
2018-01-13T12:04:20.773Z,0.63
2018-01-13T12:06:50.460Z,0.36
2018-01-13T12:09:20.042Z,0.44
2018-01-13T12:11:49.497Z,0.36
2018-01-13T12:14:18.382Z,0.73
2018-01-13T12:16:48.044Z,0.76
2018-01-13T12:19:17.388Z,0.57
2018-01-13T12:21:46.739Z,0.49
2018-01-13T12:24:16.048Z,0.68
2018-01-13T12:26:45.976Z,0.50
2018-01-13T12:29:14.961Z,0.41
2018-01-13T12:31:44.762Z,0.66
2018-01-13T12:34:13.694Z,0.66
2018-01-13T12:36:42.926Z,0.55
2018-01-13T12:39:13.756Z,0.41
2018-01-13T12:41:45.366Z,0.51
2018-01-13T12:44:14.807Z,0.39
2018-01-13T12:46:43.873Z,0.50
2018-01-13T12:49:13.042Z,0.54
2018-01-13T12:51:43.163Z,0.33
2018-01-13T12:54:12.834Z,0.38
2018-01-13T12:56:42.140Z,0.50
2018-01-13T12:59:11.881Z,0.69
2018-01-13T13:01:43.921Z,0.48
2018-01-13T13:04:13.719Z,0.52
2018-01-13T13:06:43.066Z,0.35
2018-01-13T13:09:11.930Z,0.30
2018-01-13T13:11:41.073Z,0.37
2018-01-13T13:14:10.709Z,0.56
2018-01-13T13:16:40.155Z,0.43
2018-01-13T13:19:09.615Z,0.50
2018-01-13T13:21:38.813Z,0.49
2018-01-13T13:24:08.159Z,0.24
2018-01-13T13:26:37.089Z,0.38
2018-01-13T13:29:06.644Z,0.37
2018-01-13T13:31:35.706Z,0.52
2018-01-13T13:34:05.017Z,0.45
2018-01-13T13:36:34.558Z,0.37
2018-01-13T13:39:03.475Z,0.64
2018-01-13T13:41:33.980Z,0.55
2018-01-13T13:44:04.376Z,0.53
2018-01-13T13:46:33.809Z,0.72
2018-01-13T13:49:03.748Z,0.65
2018-01-13T13:51:33.090Z,0.66
2018-01-13T13:54:02.408Z,0.53
2018-01-13T13:56:32.078Z,0.53
2018-01-13T13:59:02.490Z,0.52
2018-01-13T14:01:39.534Z,0.48
2018-01-13T14:04:08.383Z,0.68
2018-01-13T14:06:37.719Z,0.46
2018-01-13T14:09:07.020Z,0.69
2018-01-13T14:11:37.556Z,0.51
2018-01-13T14:14:06.650Z,0.55
2018-01-13T14:16:38.150Z,0.71
2018-01-13T14:19:08.075Z,0.58
2018-01-13T14:21:37.399Z,0.55
2018-01-13T14:24:06.374Z,0.68
2018-01-13T14:26:35.802Z,0.61
2018-01-13T14:29:04.638Z,0.61
2018-01-13T14:31:33.795Z,0.61
2018-01-13T14:34:03.197Z,0.73
2018-01-13T14:36:32.285Z,0.77
2018-01-13T14:39:01.257Z,0.69
2018-01-13T14:42:03.359Z,0.71
2018-01-13T14:44:32.648Z,0.53
2018-01-13T14:47:02.044Z,0.66
2018-01-13T14:49:31.335Z,0.68
2018-01-13T14:52:00.533Z,0.82
2018-01-13T14:54:30.150Z,0.89
2018-01-13T14:56:59.371Z,0.78
2018-01-13T14:59:29.719Z,0.61
2018-01-13T15:02:05.548Z,0.80
2018-01-13T15:04:36.375Z,0.69
2018-01-13T15:07:05.624Z,0.69
2018-01-13T15:09:35.123Z,0.80
2018-01-13T15:12:04.584Z,0.77
2018-01-13T15:14:33.532Z,0.94
2018-01-13T15:17:02.761Z,0.89
2018-01-13T15:19:36.722Z,0.80
2018-01-13T15:22:07.330Z,0.80
2018-01-13T15:24:36.454Z,0.87
2018-01-13T15:27:06.633Z,0.85
2018-01-13T15:29:36.111Z,0.87
2018-01-13T15:32:06.807Z,0.99
2018-01-13T15:34:35.846Z,0.68
2018-01-13T15:37:04.911Z,0.85
2018-01-13T15:39:34.035Z,1.07
2018-01-13T15:42:03.767Z,0.90
2018-01-13T15:44:33.791Z,0.81
2018-01-13T15:47:04.171Z,1.00
2018-01-13T15:49:33.505Z,0.87
2018-01-13T15:52:03.216Z,1.03
2018-01-13T15:54:32.977Z,0.83
2018-01-13T15:57:01.757Z,1.02
2018-01-13T15:59:30.879Z,0.79
2018-01-13T16:02:02.158Z,0.88
2018-01-13T16:04:32.171Z,0.81
2018-01-13T16:07:01.382Z,1.00
2018-01-13T16:09:30.512Z,0.91
2018-01-13T16:12:00.658Z,0.90
2018-01-13T16:14:29.793Z,0.91
2018-01-13T16:16:59.384Z,0.87
2018-01-13T16:19:29.783Z,1.02
2018-01-13T16:21:59.326Z,1.03
2018-01-13T16:24:29.057Z,0.89
2018-01-13T16:26:58.479Z,0.81
2018-01-13T16:29:27.610Z,0.83
2018-01-13T16:31:57.376Z,0.96
2018-01-13T16:34:27.550Z,1.10
2018-01-13T16:36:58.132Z,0.93
2018-01-13T16:39:27.087Z,0.95
2018-01-13T16:41:56.148Z,1.14
2018-01-13T16:44:26.905Z,1.09
2018-01-13T16:46:56.124Z,1.03
2018-01-13T16:49:25.922Z,1.04
2018-01-13T16:51:56.731Z,1.05
2018-01-13T16:54:27.666Z,0.78
2018-01-13T16:56:57.299Z,0.90
2018-01-13T16:59:27.039Z,0.91
2018-01-13T17:01:59.273Z,0.87
2018-01-13T17:04:33.352Z,1.02
2018-01-13T17:07:02.898Z,0.98
2018-01-13T17:09:32.192Z,0.82
2018-01-13T17:12:02.119Z,0.87
2018-01-13T17:14:31.013Z,0.79
2018-01-13T17:17:00.299Z,0.78
2018-01-13T17:19:29.975Z,0.80
2018-01-13T17:21:59.496Z,1.03
2018-01-13T17:24:28.702Z,0.91
2018-01-13T17:26:58.326Z,0.86
2018-01-13T17:29:28.414Z,1.08
2018-01-13T17:31:58.162Z,0.94
2018-01-13T17:34:30.449Z,0.83
2018-01-13T17:37:00.811Z,0.89
2018-01-13T17:39:30.282Z,0.70
2018-01-13T17:42:00.407Z,0.85
2018-01-13T17:44:32.315Z,0.91
2018-01-13T17:47:02.387Z,0.88
2018-01-13T17:49:31.736Z,1.00
2018-01-13T17:52:01.226Z,0.85
2018-01-13T17:54:31.166Z,0.88
2018-01-13T17:57:01.136Z,0.92
2018-01-13T17:59:29.996Z,0.61
2018-01-13T18:02:02.590Z,0.68
2018-01-13T18:04:32.251Z,0.65
2018-01-13T18:07:01.739Z,0.69
2018-01-13T18:09:30.745Z,0.71
2018-01-13T18:12:00.451Z,0.75
2018-01-13T18:14:31.550Z,0.71
2018-01-13T18:17:03.610Z,0.74
2018-01-13T18:19:33.069Z,0.68
2018-01-13T18:22:03.149Z,0.65
2018-01-13T18:24:32.839Z,0.84
2018-01-13T18:27:02.624Z,0.73
2018-01-13T18:29:32.158Z,0.77
2018-01-13T18:32:01.481Z,0.70
2018-01-13T18:34:30.445Z,0.80
2018-01-13T18:37:00.892Z,0.90
2018-01-13T18:39:30.561Z,0.57
2018-01-13T18:42:00.230Z,0.76
2018-01-13T18:44:30.363Z,0.66
2018-01-13T18:47:00.842Z,0.69
2018-01-13T18:49:30.694Z,0.80
2018-01-13T18:52:01.821Z,0.71
2018-01-13T18:54:32.150Z,0.60
2018-01-13T18:57:02.563Z,0.61
2018-01-13T18:59:32.066Z,0.74
2018-01-13T19:02:06.207Z,0.57
2018-01-13T19:04:38.840Z,0.62
2018-01-13T19:07:09.201Z,0.68
2018-01-13T19:09:39.343Z,0.63
2018-01-13T19:12:10.510Z,0.55
2018-01-13T19:14:43.995Z,0.73
2018-01-13T19:17:14.632Z,0.61
2018-01-13T19:19:44.904Z,0.46
2018-01-13T19:22:13.914Z,0.50
2018-01-13T19:24:44.255Z,0.50
2018-01-13T19:27:15.261Z,0.58
2018-01-13T19:29:45.201Z,0.59
2018-01-13T19:32:15.144Z,0.43
2018-01-13T19:34:45.655Z,0.54
2018-01-13T19:37:16.054Z,0.58
2018-01-13T19:39:47.464Z,0.49
2018-01-13T19:42:18.568Z,0.62
2018-01-13T19:44:51.082Z,0.61
2018-01-13T19:47:21.905Z,0.43
2018-01-13T19:49:53.106Z,0.57
2018-01-13T19:52:24.216Z,0.59
2018-01-13T19:54:54.740Z,0.55
2018-01-13T19:57:26.537Z,0.53
2018-01-13T19:59:58.227Z,0.55
2018-01-13T20:02:30.829Z,0.48
2018-01-13T20:05:05.011Z,0.43
2018-01-13T20:07:35.534Z,0.46
2018-01-13T20:10:07.459Z,0.55
2018-01-13T20:12:41.148Z,0.48
2018-01-13T20:15:14.828Z,0.56
2018-01-13T20:17:48.218Z,0.40
2018-01-13T20:20:21.681Z,0.56
2018-01-13T20:22:52.598Z,0.51
2018-01-13T20:25:23.836Z,0.48
2018-01-13T20:27:54.596Z,0.61
2018-01-13T20:30:25.342Z,0.50
2018-01-13T20:32:56.739Z,0.56
2018-01-13T20:35:28.367Z,0.49
2018-01-13T20:38:00.557Z,0.46
2018-01-13T20:40:32.771Z,0.47
2018-01-13T20:43:04.087Z,0.71
2018-01-13T20:45:39.299Z,0.42
2018-01-13T20:55:00.397Z,0.47
2018-01-13T20:57:30.713Z,0.52
2018-01-13T21:00:00.092Z,0.46
2018-01-13T21:02:35.036Z,0.65
2018-01-13T21:05:06.065Z,0.57
2018-01-13T21:07:38.720Z,0.54
2018-01-13T21:10:09.549Z,0.48
2018-01-13T21:12:43.013Z,0.46
2018-01-13T21:15:13.406Z,0.50
2018-01-13T21:17:43.982Z,0.72
2018-01-13T21:20:14.793Z,0.61
2018-01-13T21:22:45.375Z,0.75
2018-01-13T21:25:16.887Z,0.61
2018-01-13T21:27:46.830Z,0.58
2018-01-13T21:30:16.880Z,0.63
2018-01-13T21:32:50.836Z,0.53
2018-01-13T21:35:26.789Z,0.65
2018-01-13T21:38:01.172Z,0.48
2018-01-13T21:40:39.124Z,0.51
2018-01-13T21:43:11.135Z,0.61
2018-01-13T21:45:46.713Z,0.58
2018-01-13T21:48:21.578Z,0.49
2018-01-13T21:50:55.118Z,0.56
2018-01-13T21:53:30.093Z,0.63
2018-01-13T21:56:01.547Z,0.54
2018-01-13T21:58:32.729Z,0.61
2018-01-13T22:01:06.723Z,0.51
2018-01-13T22:03:39.609Z,0.55
2018-01-13T22:06:12.721Z,0.51
2018-01-13T22:08:42.931Z,0.47
2018-01-13T22:11:12.124Z,0.64
2018-01-13T22:13:42.872Z,0.54
2018-01-13T22:16:15.219Z,0.52
2018-01-13T22:18:45.672Z,0.55
2018-01-13T22:21:15.131Z,0.49
2018-01-13T22:23:46.872Z,0.55
2018-01-13T22:26:18.617Z,0.54
2018-01-13T22:28:50.035Z,0.54
2018-01-13T22:31:23.031Z,0.58
2018-01-13T22:36:47.793Z,0.52
2018-01-13T22:39:24.588Z,0.55
2018-01-13T22:41:54.961Z,0.54
2018-01-13T22:44:24.154Z,0.53
2018-01-13T22:46:55.888Z,0.51
2018-01-13T22:49:25.719Z,0.51
2018-01-13T22:51:55.327Z,0.54
2018-01-13T22:54:25.813Z,0.55
2018-01-13T22:56:58.425Z,0.57
2018-01-13T22:59:35.399Z,0.68
2018-01-13T23:02:08.018Z,0.70
2018-01-13T23:04:41.519Z,0.69
2018-01-13T23:07:14.429Z,0.49
2018-01-13T23:09:46.267Z,0.56
2018-01-13T23:12:17.627Z,0.66
2018-01-13T23:14:46.954Z,0.49
2018-01-13T23:17:16.531Z,0.51
2018-01-13T23:19:47.301Z,0.59
2018-01-13T23:22:16.224Z,0.46
2018-01-13T23:24:47.403Z,0.67
2018-01-13T23:27:22.766Z,0.47
2018-01-13T23:29:54.800Z,0.60
2018-01-13T23:32:25.994Z,0.42
2018-01-13T23:34:55.602Z,0.44
2018-01-13T23:37:25.205Z,0.60
2018-01-13T23:39:54.194Z,0.51
2018-01-13T23:42:23.537Z,0.71
2018-01-13T23:44:53.084Z,0.46
2018-01-13T23:47:21.937Z,0.44
2018-01-13T23:49:53.019Z,0.63
2018-01-13T23:52:25.308Z,0.49
2018-01-13T23:54:55.307Z,0.55
2018-01-13T23:57:24.371Z,0.47
2018-01-13T23:59:53.496Z,0.49
